Tiempo atmosférico en la estación meteorológica de Cubillas de Rueda, León (916 m.)



Fecha
DESCASC
Temp. máxima en grados centígrados (hora)
DESCASC
Temp. mínima en grados centígrados (hora)
DESCASC
Temp. media en grados centígrados
DESCASC
Racha de viento máxima en m/sg (hora)
DESCASC
Velocidad máxima media en intervalos de 10 minutos(hora)
DESCASC
Precipitaciones diarias en mm
DESCASC
Precipitaciones de 00:00 a 06:00 en mm
DESCASC
Precipitaciones de 06:00 a 12:00 en mm
DESCASC
Precipitaciones de 12:00 a 18:00 en mm
DESCASC
Precipitaciones de 18:00 a 24:00 en mm
DESCASC
17-10-2019 18.1 (16:20) 10 (23:00) 14.1 10 (17:20) 5.28 (16:30) 10.6 10.6 0 0 0
16-10-2019 12.8 (16:30) 8 (08:00) 10.4 8.33 (16:00) 4.72 (16:00) 6.8 0 0 0 6.8
15-10-2019 11.6 (16:50) -0.1 (08:20) 5.8 8.89 (18:10) 5.28 (18:20) 1.2 0 0 0 1.2
14-10-2019 13.6 (00:00) 4.9 (23:30) 9.3 12.22 (08:50) 5.28 (09:00) 10.4 0 6.6 3.8 0
13-10-2019 19.6 (18:00) 12.1 (00:00) 15.9 10 (07:20) 5.83 (07:20) 0 0 0 0 0
12-10-2019 25.1 (16:50) 10.8 (00:00) 18 13.89 (18:20) 7.5 (17:20) 0 0 0 0 0
11-10-2019 24.6 (17:10) 3.3 (00:00) 14 7.78 (16:10) 4.44 (15:30) 0 0 0 0 0
10-10-2019 21.7 (17:40) 1.7 (00:00) 11.7 3.89 (17:10) 2.22 (17:20) 0 0 0 0 0
09-10-2019 20.3 (18:00) 7.8 (00:00) 14 5.83 (19:30) 4.17 (19:40) 0 0 0 0 0
08-10-2019 25.1 (16:20) 6.4 (00:00) 15.8 7.78 (16:30) 4.17 (16:30) 0 0 0 0 0
07-10-2019 25.4 (18:00) 4.7 (00:00) 15 4.17 (13:10) 2.5 (17:20) 0 0 0 0 0
06-10-2019 22.4 (18:10) 4.6 (00:00) 13.5 6.11 (15:20) 3.33 (21:50) 0 0 0 0 0
05-10-2019 22.5 (17:50) 5 (00:00) 13.8 5 (15:50) 2.78 (13:40) 0 0 0 0 0
04-10-2019 22.5 (18:20) 5 (00:00) 13.8 6.11 (14:00) 3.61 (14:00) 0 0 0 0 0
03-10-2019 23.2 (18:50) 3.3 (00:00) 13.3 5.28 (14:00) 2.78 (13:50) 0 0 0 0 0
02-10-2019 19.8 (18:10) 3.2 (00:00) 11.5 8.33 (13:50) 3.89 (12:50) 0 0 0 0 0
01-10-2019 21.4 (17:00) 7.1 (00:00) 14.2 11.67 (13:10) 6.67 (16:10) 0 0 0 0 0
30-09-2019 24.2 (17:20) 6 (00:00) 15.1 5.83 (13:40) 3.61 (13:20) 0 0 0 0 0
29-09-2019 24.8 (18:00) 3.5 (00:00) 14.1 8.06 (15:40) 4.44 (14:20) 0 0 0 0 0
28-09-2019 21.8 (17:30) 6.7 (00:00) 14.2 6.39 (14:20) 2.78 (16:40) 0 0 0 0 0
27-09-2019 21.6 (16:50) 3.2 (00:00) 12.4 10.28 (15:30) 6.39 (17:00) 0 0 0 0 0
26-09-2019 23.1 (18:20) 5.6 (00:00) 14.4 5.83 (13:20) 3.33 (15:10) 0 0 0 0 0
25-09-2019 19.7 (18:30) 3.8 (00:00) 11.8 7.5 (00:30) 4.17 (00:30) 0 0 0 0 0
24-09-2019 20.8 (16:50) 10 (00:00) 15.4 10 (18:10) 6.39 (18:10) 0 0 0 0 0
23-09-2019 17.6 (15:20) 5.4 (00:00) 11.5 5 (15:30) 2.78 (15:30) 0 0 0 0 0
22-09-2019 17.6 (16:00) 7.8 (00:00) 12.7 11.11 (00:50) 6.39 (00:10) 0 0 0 0 0
21-09-2019 15.8 (11:30) 13.8 (00:00) 14.8 10.28 (22:30) 6.11 (23:50) 6.2 0.4 0.2 1 4.6
20-09-2019 24.8 (17:00) 11.6 (00:00) 18.2 11.11 (20:00) 6.39 (20:40) 2.2 0 0 0 2.2

Gráficas

Temp. máximas Temp. mínimas Temp. medias Precipitaciones Rachas de viento máximas Velocidades máximas media en intervalos de 10 minutos

Datos horarios

Fecha y hora oficial Temperatura (ºC) Velocidad del viento (km/h) Dirección del viento Racha (km/h) Dirección de racha Precipitación (mm) Presión (hPa) Tendencia (hPa) Humedad (%)
2019-10-19 23:00:00 7.9 12 Este 21 Este 2.6 -- -- 96
2019-10-19 22:00:00 8.2 10 Este 18 Este 2.4 -- -- 95
2019-10-19 21:00:00 8.6 12 Nordeste 17 Nordeste 1.2 -- -- 95
2019-10-19 20:00:00 8.7 0 Calma 13 Norte 0.2 -- -- 94
2019-10-19 19:00:00 9.3 9 Norte 15 Norte 3.4 -- -- 96
2019-10-19 18:00:00 9.3 3 Oeste 16 Sudoeste 7.2 -- -- 96
2019-10-19 17:00:00 10.2 9 Sudoeste 28 Sudoeste 0.8 -- -- 95
2019-10-19 16:00:00 10.3 14 Sudoeste 29 Sudoeste 2.2 -- -- 96
2019-10-19 15:00:00 10.1 13 Sudoeste 27 Sudoeste 2.2 -- -- 96
2019-10-19 14:00:00 9.9 11 Sur 29 Sudoeste 1 -- -- 96
2019-10-19 13:00:00 9.4 16 Sudoeste 34 Sudoeste 4.4 -- -- 97
2019-10-19 12:00:00 9.2 13 Sur 31 Sudoeste 2.2 -- -- 96
2019-10-19 11:00:00 9.2 15 Sudoeste 26 Sudoeste 1.6 -- -- 96
2019-10-19 10:00:00 9.2 15 Sudoeste 27 Sudoeste 1.6 -- -- 96
2019-10-19 09:00:00 9.1 11 Sudoeste 26 Sudoeste 0 -- -- 95
2019-10-19 08:00:00 9.1 13 Sudoeste 28 Sudoeste 0.2 -- -- 95
2019-10-19 07:00:00 9.2 12 Sudoeste 22 Sudoeste 0 -- -- 95
2019-10-19 06:00:00 9.2 9 Sur 24 Sur 0 -- -- 94
2019-10-19 05:00:00 9.3 8 Sur 18 Sudoeste 0.4 -- -- 94
2019-10-19 04:00:00 9.5 8 Sudoeste 16 Sudoeste 1.4 -- -- 94
2019-10-19 03:00:00 9.8 5 Sudoeste 15 Sudoeste 0 -- -- 91
2019-10-19 02:00:00 9.8 7 Sudoeste 14 Sur 0 -- -- 90
2019-10-19 01:00:00 9.8 4 Sudoeste 11 Sudoeste 0.2 -- -- 91
2019-10-19 00:00:00 10.2 7 Sudoeste 18 Sudoeste 0 -- -- 87
2019-10-18 23:00:00 10.5 10 Sudoeste 18 Sudoeste 0 -- -- 85
2019-10-18 22:00:00 10.7 7 Sudoeste 15 Sudoeste 0 -- -- 83
2019-10-18 21:00:00 10.8 3 Sur 6 Sudoeste 0 -- -- 83
2019-10-18 20:00:00 11.1 0 Calma 7 Sudeste 0 -- -- 81
2019-10-18 19:00:00 11.9 0 Calma 6 Oeste 0 -- -- 76
2019-10-18 18:00:00 12.2 4 Oeste 12 Oeste 0.2 -- -- 72
2019-10-18 17:00:00 12.2 7 Oeste 15 Noroeste 0 -- -- 71
2019-10-18 16:00:00 12.2 10 Oeste 27 Oeste 0 -- -- 71
2019-10-18 15:00:00 11.9 15 Oeste 33 Oeste 0 -- -- 72
2019-10-18 14:00:00 12.3 15 Oeste 30 Oeste 0 -- -- 67
2019-10-18 13:00:00 12.2 12 Sudoeste 22 Sudoeste 0 -- -- 68
2019-10-18 12:00:00 11.5 9 Sudoeste 16 Oeste 0 -- -- 74
2019-10-18 11:00:00 9.7 4 Sudoeste 8 Oeste 0 -- -- 84
2019-10-18 10:00:00 8.9 2 Sudoeste 10 Sudoeste 0 -- -- 86
2019-10-18 09:00:00 8.7 6 Oeste 12 Oeste 0 -- -- 84
2019-10-18 08:00:00 8.7 6 Oeste 11 Oeste 0 -- -- 85
2019-10-18 07:00:00 9.2 0 Calma 10 Oeste 0 -- -- 86
2019-10-18 06:00:00 9.7 6 Oeste 18 Oeste 0 -- -- 86
2019-10-18 05:00:00 10.1 6 Sudoeste 12 Oeste 0 -- -- 91
2019-10-18 04:00:00 10.8 3 Sudoeste 9 Oeste 0 -- -- 95
2019-10-18 03:00:00 11.3 4 Sudoeste 8 Sudoeste 0 -- -- 94
2019-10-18 02:00:00 11.3 3 Sur 6 Sur 0 -- -- 94
2019-10-18 01:00:00 10.9 2 Nordeste 8 Noroeste 0 -- -- 92
2019-10-18 00:00:00 10.6 3 Sudeste 4 Este 0 -- -- 92
2019-10-17 23:00:00 10 0 Calma 3 Nordeste 0 -- -- 87
2019-10-17 22:00:00 11.2 0 Calma 9 Sur 0 -- -- 81
2019-10-17 21:00:00 10.6 2 Sur 4 Sur 0 -- -- 81
2019-10-17 20:00:00 13.3 0 Calma 14 Noroeste 0 -- -- 70
2019-10-17 19:00:00 16.1 8 Noroeste 23 Oeste 0 -- -- 60
2019-10-17 18:00:00 17.2 14 Sudoeste 36 Sudoeste 0 -- -- 56
2019-10-17 17:00:00 17.4 14 Sudoeste 29 Sudoeste 0 -- -- 59
2019-10-17 16:00:00 17.8 18 Sudoeste 31 Oeste 0 -- -- 57
2019-10-17 15:00:00 16.7 13 Oeste 26 Oeste 0 -- -- 69
2019-10-17 14:00:00 14.8 8 Oeste 17 Sudoeste 0 -- -- 77
2019-10-17 13:00:00 13.1 6 Oeste 13 Sudoeste 0 -- -- 91
2019-10-17 12:00:00 11.6 9 Oeste 19 Oeste 0 -- -- 96
2019-10-17 11:00:00 11.4 10 Oeste 21 Sudoeste 0 -- -- 98
2019-10-17 10:00:00 11.1 10 Oeste 22 Sudoeste 0 -- -- 98
2019-10-17 09:00:00 10.8 10 Sudoeste 22 Sudoeste 0 -- -- 97
2019-10-17 08:00:00 10.7 9 Sudoeste 27 Oeste 0 -- -- 97
2019-10-17 07:00:00 10.6 13 Sudoeste 26 Sudoeste 0 -- -- 97
2019-10-17 06:00:00 10.6 12 Sudoeste 22 Oeste 0 -- -- 97
2019-10-17 05:00:00 10.5 9 Sudoeste 20 Sudoeste 0.6 -- -- 97
2019-10-17 04:00:00 10.4 11 Sudoeste 22 Sudoeste 2 -- -- 97
2019-10-17 03:00:00 10.4 10 Sudoeste 26 Sudoeste 2.6 -- -- 96
2019-10-17 02:00:00 10.5 12 Sudoeste 27 Sudoeste 2.8 -- -- 96
2019-10-17 01:00:00 10.5 15 Sudoeste 33 Sudoeste 2.6 -- -- 96
2019-10-17 00:00:00 10.6 12 Sur 22 Sudoeste 1.8 -- -- 96
2019-10-16 23:00:00 10.7 14 Sudoeste 29 Sudoeste 1.6 -- -- 94
2019-10-16 22:00:00 10.7 4 Sudoeste 9 Sur 2 -- -- 94
2019-10-16 21:00:00 10.7 4 Sudoeste 21 Oeste 1.4 -- -- 93
2019-10-16 20:00:00 11.6 6 Sudoeste 17 Sudoeste 0 -- -- 86
2019-10-16 19:00:00 11.8 4 Sudoeste 17 Sudoeste 0 -- -- 85
2019-10-16 18:00:00 12.3 11 Sudoeste 28 Sudoeste 0 -- -- 81
2019-10-16 17:00:00 12.5 13 Sudoeste 29 Sudoeste 0 -- -- 79
2019-10-16 16:00:00 12.5 17 Sudoeste 30 Oeste 0 -- -- 78
2019-10-16 15:00:00 11.5 11 Sudoeste 19 Sudoeste 0 -- -- 84
2019-10-16 14:00:00 10.7 9 Sudoeste 15 Sudoeste 0 -- -- 87
2019-10-16 13:00:00 9.7 8 Sudoeste 26 Oeste 0 -- -- 89
2019-10-16 12:00:00 9.3 12 Sudoeste 27 Sudoeste 0 -- -- 92
2019-10-16 11:00:00 8.8 9 Sudoeste 23 Sudoeste 0 -- -- 94
2019-10-16 10:00:00 8.4 12 Sudoeste 25 Sudoeste 0 -- -- 95
2019-10-16 09:00:00 8.1 9 Sudoeste 23 Sudoeste 0 -- -- 95
2019-10-16 08:00:00 8 9 Sudoeste 18 Sudoeste 0 -- -- 94
2019-10-16 07:00:00 8.2 8 Sudoeste 18 Sudoeste 0 -- -- 94
2019-10-16 06:00:00 8.2 9 Sudoeste 20 Sudoeste 0 -- -- 94
2019-10-16 05:00:00 8.3 10 Sudoeste 20 Sudoeste 0 -- -- 93
2019-10-16 04:00:00 8.4 7 Sudoeste 16 Sudoeste 0 -- -- 93
2019-10-16 03:00:00 8.6 5 Sudoeste 13 Sudoeste 0 -- -- 94
2019-10-16 02:00:00 8.6 6 Sudoeste 14 Sudoeste 0 -- -- 94
2019-10-16 01:00:00 8.7 10 Sudoeste 21 Sudoeste 0 -- -- 94
2019-10-16 00:00:00 8.7 10 Sudoeste 17 Sudoeste 0.2 -- -- 94
2019-10-15 23:00:00 8.5 4 Sudoeste 12 Sudoeste 0.2 -- -- 94
2019-10-15 22:00:00 8.5 4 Sudoeste 8 Sudoeste 0.4 -- -- 93
2019-10-15 21:00:00 8.5 4 Sudoeste 14 Sudoeste 0.2 -- -- 92
2019-10-15 20:00:00 8.8 8 Sudoeste 30 Sur 0.2 -- -- 89
2019-10-15 19:00:00 10.3 13 Sudoeste 32 Oeste 0 -- -- 77
2019-10-15 18:00:00 11.2 18 Sudoeste 28 Sudoeste 0 -- -- 72
2019-10-15 17:00:00 11.5 12 Sudoeste 21 Sudoeste 0 -- -- 65
2019-10-15 16:00:00 11.5 12 Sudoeste 22 Sudoeste 0 -- -- 63
2019-10-15 15:00:00 10.9 13 Sudoeste 22 Sudoeste 0 -- -- 67
2019-10-15 14:00:00 10.5 14 Oeste 24 Sudoeste 0 -- -- 69
2019-10-15 13:00:00 9.6 12 Oeste 25 Oeste 0 -- -- 73
2019-10-15 12:00:00 8.3 8 Oeste 16 Oeste 0 -- -- 81
2019-10-15 11:00:00 6.5 7 Oeste 11 Oeste 0 -- -- 88
2019-10-15 10:00:00 3.9 3 Sudeste 6 Sur 0 -- -- 98
2019-10-15 09:00:00 0.3 3 Sur 6 Sudeste 0 -- -- 97
2019-10-15 08:00:00 0.1 2 Sudeste 4 Este 0 -- -- 95
2019-10-15 07:00:00 0.5 0 Calma 4 Sudoeste 0 -- -- 94
2019-10-15 06:00:00 1.7 0 Calma 6 Sudoeste 0 -- -- 94
2019-10-15 05:00:00 3.3 5 Sudoeste 11 Oeste 0 -- -- 95
2019-10-15 04:00:00 2.6 0 Calma 14 Oeste 0 -- -- 91
2019-10-15 03:00:00 4 5 Oeste 16 Oeste 0 -- -- 91
2019-10-15 02:00:00 4.6 5 Oeste 21 Oeste 0 -- -- 90
2019-10-15 01:00:00 4.8 3 Sudoeste 26 Oeste 0 -- -- 90
2019-10-15 00:00:00 5.1 13 Oeste 26 Oeste 0 -- -- 90
2019-10-14 23:00:00 5.4 10 Sudoeste 25 Oeste 0 -- -- 87
2019-10-14 22:00:00 5.5 12 Oeste 21 Oeste 0 -- -- 90
2019-10-14 21:00:00 6.5 10 Sudoeste 30 Oeste 0 -- -- 89
2019-10-14 20:00:00 7.4 14 Oeste 28 Oeste 0 -- -- 87
2019-10-14 19:00:00 7.2 12 Sudoeste 21 Sudoeste 0 -- -- 90
2019-10-14 18:00:00 6.5 5 Sudoeste 40 Oeste 1.8 -- -- 93
2019-10-14 17:00:00 9.3 13 Sudoeste 36 Sudoeste 0 -- -- 88
2019-10-14 16:00:00 10.3 16 Sudoeste 28 Sudoeste 0.2 -- -- 88
2019-10-14 15:00:00 9.6 16 Sudoeste 31 Sudoeste 0.6 -- -- 91
2019-10-14 14:00:00 9.3 15 Sudoeste 32 Sudoeste 1.2 -- -- 91
2019-10-14 13:00:00 9.8 15 Sudoeste 31 Sudoeste 0 -- -- 86
2019-10-14 12:00:00 9.5 14 Sudoeste 29 Sudoeste 0.4 -- -- 89
2019-10-14 11:00:00 8.4 3 Sudoeste 15 Oeste 0.8 -- -- 92
2019-10-14 10:00:00 8.5 4 Oeste 24 Oeste 3.6 -- -- 93
2019-10-14 09:00:00 10.1 19 Oeste 44 Oeste 1.8 -- -- 86
2019-10-14 08:00:00 13.4 13 Sur 23 Sur 0 -- -- 77
2019-10-14 07:00:00 12.1 6 Sudeste 10 Sudeste 0 -- -- 78
2019-10-14 06:00:00 11.2 0 Calma 5 Norte 0 -- -- 81
2019-10-14 05:00:00 11.3 0 Calma 6 Nordeste 0 -- -- 79
2019-10-14 04:00:00 11.3 3 Nordeste 5 Este 0 -- -- 79
2019-10-14 03:00:00 11.1 4 Norte 7 Sudeste 0 -- -- 78
2019-10-14 02:00:00 12.2 4 Este 6 Sur 0 -- -- 75
2019-10-14 01:00:00 12.7 3 Sur 12 Sur 0 -- -- 70
2019-10-14 00:00:00 13.6 7 Sudoeste 17 Sudoeste 0 -- -- 67
2019-10-13 23:00:00 14 10 Sudoeste 18 Sudoeste 0 -- -- 65
2019-10-13 22:00:00 14.6 10 Sur 21 Sudoeste 0 -- -- 64
2019-10-13 21:00:00 16.1 14 Sudoeste 23 Sudoeste 0 -- -- 59
2019-10-13 20:00:00 17.1 15 Sudoeste 30 Sudoeste 0 -- -- 53
2019-10-13 19:00:00 18.2 13 Sudoeste 35 Sudoeste 0 -- -- 55
2019-10-13 18:00:00 19.6 17 Sudoeste 32 Sudoeste 0 -- -- 54
2019-10-13 17:00:00 19 18 Sudoeste 33 Sur 0 -- -- 57
2019-10-13 16:00:00 17.4 15 Sur 32 Sudoeste 0 -- -- 63
2019-10-13 15:00:00 16.2 15 Sur 30 Sudoeste 0 -- -- 67
2019-10-13 14:00:00 15.4 15 Sudoeste 29 Sudoeste 0 -- -- 70
2019-10-13 13:00:00 14.9 13 Sudoeste 31 Sudoeste 0 -- -- 72
2019-10-13 12:00:00 15 14 Sur 33 Sudoeste 0 -- -- 70
2019-10-13 11:00:00 14.3 16 Sur 31 Sur 0 -- -- 73
2019-10-13 10:00:00 12.9 5 Sur 15 Sudoeste 0 -- -- 82
2019-10-13 09:00:00 12.2 12 Sudoeste 28 Sudoeste 0 -- -- 81
2019-10-13 08:00:00 12.4 18 Sudoeste 36 Sudoeste 0 -- -- 80
2019-10-13 07:00:00 13.6 17 Sudoeste 30 Sudoeste 0 -- -- 81
2019-10-13 06:00:00 14.2 15 Sudoeste 32 Sudoeste 0 -- -- 81
2019-10-13 05:00:00 15 15 Sudoeste 29 Sudoeste 0 -- -- 80
2019-10-13 04:00:00 13.8 6 Sur 28 Sudoeste 0 -- -- 74
2019-10-13 03:00:00 14.5 3 Sudoeste 11 Sur 0 -- -- 59
2019-10-13 02:00:00 15.7 6 Sur 21 Sur 0 -- -- 55
2019-10-13 01:00:00 17.4 14 Sur 28 Sur 0 -- -- 50
2019-10-13 00:00:00 18.5 13 Sur 27 Sur 0 -- -- 47
2019-10-12 23:00:00 19.9 16 Sur 28 Sur 0 -- -- 45
2019-10-12 22:00:00 20 14 Sur 25 Sur 0 -- -- 44
2019-10-12 21:00:00 20.7 14 Sudoeste 32 Sudoeste 0 -- -- 43
2019-10-12 20:00:00 21.9 20 Sudoeste 41 Sudoeste 0 -- -- 39
2019-10-12 19:00:00 23.2 25 Sudoeste 50 Sudoeste 0 -- -- 36
2019-10-12 18:00:00 23.9 23 Sudoeste 45 Sudoeste 0 -- -- 35
2019-10-12 17:00:00 25.1 26 Sudoeste 46 Sudoeste 0 -- -- 33
2019-10-12 16:00:00 23.9 20 Sudoeste 41 Sudoeste 0 -- -- 42
2019-10-12 15:00:00 23 19 Sudoeste 40 Sudoeste 0 -- -- 47
2019-10-12 14:00:00 20.5 22 Sudoeste 39 Sudoeste 0 -- -- 55
2019-10-12 13:00:00 20.3 15 Sudoeste 32 Sudoeste 0 -- -- 56
2019-10-12 12:00:00 17.7 7 Sudoeste 15 Sudoeste 0 -- -- 70
2019-10-12 11:00:00 16.4 7 Sur 15 Sur 0 -- -- 75
2019-10-12 10:00:00 12.2 0 Calma 4 Noroeste 0 -- -- 85
2019-10-12 09:00:00 11.9 3 Nordeste 6 Sur 0 -- -- 84
2019-10-12 08:00:00 12.5 6 Sur 10 Sur 0 -- -- 83
2019-10-12 07:00:00 10.9 0 Calma 6 Sudeste 0 -- -- 85
2019-10-12 06:00:00 11.9 2 Este 6 Norte 0 -- -- 83
2019-10-12 05:00:00 12 0 Calma 4 Norte 0 -- -- 84
2019-10-12 04:00:00 11.3 0 Calma 5 Nordeste 0 -- -- 85
2019-10-12 03:00:00 11.5 3 Nordeste 4 Nordeste 0 -- -- 82
2019-10-12 02:00:00 12.3 0 Calma 4 Sur 0 -- -- 80
2019-10-12 01:00:00 13.2 2 Sur 8 Sudoeste 0 -- -- 75
2019-10-12 00:00:00 14.7 5 Sur 8 Sur 0 -- -- 70
2019-10-11 23:00:00 14.1 2 Sudoeste 5 Sudoeste 0 -- -- 70
2019-10-11 22:00:00 14.5 0 Calma 4 Sudeste 0 -- -- 68
2019-10-11 21:00:00 15.3 2 Sur 5 Sudoeste 0 -- -- 63
2019-10-11 20:00:00 19.3 2 Sur 9 Sudoeste 0 -- -- 52
2019-10-11 19:00:00 23.1 8 Sudoeste 21 Sudoeste 0 -- -- 42
2019-10-11 18:00:00 24.4 8 Sudoeste 25 Oeste 0 -- -- 40
2019-10-11 17:00:00 24.4 13 Oeste 28 Oeste 0 -- -- 40
2019-10-11 16:00:00 24.2 15 Sudoeste 27 Sudoeste 0 -- -- 39
2019-10-11 15:00:00 23.3 12 Sudoeste 23 Oeste 0 -- -- 38
2019-10-11 14:00:00 22.2 8 Sudoeste 17 Sudoeste 0 -- -- 39
2019-10-11 13:00:00 20.4 8 Sur 15 Sur 0 -- -- 43
2019-10-11 12:00:00 17.9 0 Calma 5 Sudoeste 0 -- -- 46
2019-10-11 11:00:00 13.4 2 Nordeste 8 Nordeste 0 -- -- 63
2019-10-11 10:00:00 8.5 2 Nordeste 6 Nordeste 0 -- -- 79
2019-10-11 09:00:00 3.9 3 Nordeste 4 Nordeste 0 -- -- 92
2019-10-11 08:00:00 3.9 3 Este 5 Nordeste 0 -- -- 89
2019-10-11 07:00:00 3.7 2 Nordeste 4 Nordeste 0 -- -- 89
2019-10-11 06:00:00 4.3 3 Este 4 Nordeste 0 -- -- 89
2019-10-11 05:00:00 4.8 3 Nordeste 5 Nordeste 0 -- -- 88
2019-10-11 04:00:00 4.5 3 Nordeste 4 Este 0 -- -- 86
2019-10-11 03:00:00 4.9 4 Nordeste 5 Nordeste 0 -- -- 85
2019-10-11 02:00:00 5.6 4 Nordeste 5 Nordeste 0 -- -- 84
2019-10-11 01:00:00 5.8 3 Nordeste 5 Nordeste 0 -- -- 80
2019-10-11 00:00:00 6.8 4 Nordeste 7 Nordeste 0 -- -- 80
2019-10-10 23:00:00 8 4 Este 5 Este 0 -- -- 73
2019-10-10 22:00:00 11.5 0 Calma 8 Sur 0 -- -- 63
2019-10-10 21:00:00 13.4 4 Sudeste 9 Sudeste 0 -- -- 57
2019-10-10 20:00:00 16.9 5 Sudeste 6 Sudeste 0 -- -- 49
2019-10-10 19:00:00 20.9 5 Sur 9 Sudeste 0 -- -- 39
2019-10-10 18:00:00 21.6 5 Sur 14 Oeste 0 -- -- 39
2019-10-10 17:00:00 21.6 4 Sudoeste 13 Oeste 0 -- -- 40
2019-10-10 16:00:00 20.4 5 Noroeste 12 Oeste 0 -- -- 43
2019-10-10 15:00:00 19 4 Noroeste 11 Sudeste 0 -- -- 46
2019-10-10 14:00:00 17.4 2 Nordeste 13 Sudeste 0 -- -- 49
2019-10-10 13:00:00 15.8 3 Norte 10 Nordeste 0 -- -- 55
2019-10-10 12:00:00 14 4 Nordeste 9 Este 0 -- -- 61
2019-10-10 11:00:00 10.6 2 Nordeste 8 Nordeste 0 -- -- 77
2019-10-10 10:00:00 6.8 3 Nordeste 7 Nordeste 0 -- -- 89
2019-10-10 09:00:00 2 3 Nordeste 5 Nordeste 0 -- -- 94
2019-10-10 08:00:00 1.7 0 Calma 5 Nordeste 0 -- -- 92
2019-10-10 07:00:00 3.3 2 Este 7 Nordeste 0 -- -- 92
2019-10-10 06:00:00 3.1 3 Nordeste 6 Nordeste 0 -- -- 93
2019-10-10 05:00:00 3.9 2 Nordeste 7 Nordeste 0 -- -- 90
2019-10-10 04:00:00 4.4 2 Nordeste 5 Nordeste 0 -- -- 90
2019-10-10 03:00:00 5.7 0 Calma 6 Nordeste 0 -- -- 87
2019-10-10 02:00:00 6.4 2 Este 9 Nordeste 0 -- -- 84
2019-10-10 01:00:00 8 3 Nordeste 8 Nordeste 0 -- -- 85
2019-10-10 00:00:00 7.9 3 Este 12 Este 0 -- -- 81
2019-10-09 23:00:00 8.8 6 Este 12 Nordeste 0 -- -- 78
2019-10-09 22:00:00 11.4 6 Nordeste 14 Este 0 -- -- 73
2019-10-09 21:00:00 12.4 5 Este 19 Nordeste 0 -- -- 69
2019-10-09 20:00:00 15.9 13 Nordeste 21 Nordeste 0 -- -- 48
2019-10-09 19:00:00 19.5 5 Sudoeste 12 Oeste 0 -- -- 35
2019-10-09 18:00:00 20.3 6 Oeste 15 Oeste 0 -- -- 33
2019-10-09 17:00:00 20.1 7 Oeste 15 Oeste 0 -- -- 34
2019-10-09 16:00:00 19.3 4 Norte 15 Noroeste 0 -- -- 37
2019-10-09 15:00:00 18.6 6 Oeste 14 Noroeste 0 -- -- 35
2019-10-09 14:00:00 17.4 5 Norte 18 Noroeste 0 -- -- 37
2019-10-09 13:00:00 15.7 3 Este 14 Este 0 -- -- 47
2019-10-09 12:00:00 13.9 4 Norte 14 Nordeste 0 -- -- 56
2019-10-09 11:00:00 12.6 6 Nordeste 11 Nordeste 0 -- -- 67
2019-10-09 10:00:00 9.5 3 Norte 8 Nordeste 0 -- -- 84
2019-10-09 09:00:00 8 2 Nordeste 4 Norte 0 -- -- 91
2019-10-09 08:00:00 9.4 2 Nordeste 5 Norte 0 -- -- 92
2019-10-09 07:00:00 9.3 3 Norte 7 Este 0 -- -- 94
2019-10-09 06:00:00 8.4 3 Este 6 Este 0 -- -- 92
2019-10-09 05:00:00 10.4 2 Sudeste 7 Noroeste 0 -- -- 91
2019-10-09 04:00:00 9.9 0 Calma 4 Sudeste 0 -- -- 92
2019-10-09 03:00:00 11 0 Calma 5 Noroeste 0 -- -- 88
2019-10-09 02:00:00 11.8 0 Calma 9 Este 0 -- -- 87
2019-10-09 01:00:00 13.6 5 Nordeste 20 Sudeste 0 -- -- 83
2019-10-09 00:00:00 14.1 11 Sudeste 19 Sudeste 0 -- -- 83
2019-10-08 23:00:00 15.3 0 Calma 9 Sudoeste 0 -- -- 76
2019-10-08 22:00:00 17.5 5 Sudoeste 14 Oeste 0 -- -- 71
2019-10-08 21:00:00 18.7 7 Sudoeste 12 Sudoeste 0 -- -- 64
2019-10-08 20:00:00 21 5 Oeste 13 Oeste 0 -- -- 55
2019-10-08 19:00:00 23.9 8 Oeste 16 Sudoeste 0 -- -- 49
2019-10-08 18:00:00 24.7 10 Oeste 21 Sudoeste 0 -- -- 47
2019-10-08 17:00:00 25 11 Sudoeste 28 Sudoeste 0 -- -- 46
2019-10-08 16:00:00 25 14 Sudoeste 22 Oeste 0 -- -- 45
2019-10-08 15:00:00 24.1 9 Oeste 21 Oeste 0 -- -- 45
2019-10-08 14:00:00 22.8 11 Oeste 21 Oeste 0 -- -- 45
2019-10-08 13:00:00 21 5 Sudoeste 11 Sudoeste 0 -- -- 44
2019-10-08 12:00:00 18.6 2 Sudeste 6 Sudoeste 0 -- -- 46
2019-10-08 11:00:00 15.4 3 Noroeste 6 Nordeste 0 -- -- 58
2019-10-08 10:00:00 11.2 3 Nordeste 6 Norte 0 -- -- 72
2019-10-08 09:00:00 6.9 4 Este 6 Nordeste 0 -- -- 86
2019-10-08 08:00:00 7 0 Calma 7 Nordeste 0 -- -- 82
2019-10-08 07:00:00 7.1 3 Nordeste 8 Nordeste 0 -- -- 83
2019-10-08 06:00:00 7.5 4 Nordeste 8 Nordeste 0 -- -- 83
2019-10-08 05:00:00 7.8 3 Nordeste 7 Nordeste 0 -- -- 82
2019-10-08 04:00:00 8 5 Nordeste 9 Norte 0 -- -- 82
2019-10-08 03:00:00 8.1 4 Nordeste 7 Nordeste 0 -- -- 83
2019-10-08 02:00:00 8.5 4 Este 6 Nordeste 0 -- -- 80
2019-10-08 01:00:00 9.1 2 Nordeste 5 Este 0 -- -- 77
2019-10-08 00:00:00 9.9 4 Nordeste 6 Este 0 -- -- 75
2019-10-07 23:00:00 11.6 0 Calma 5 Este 0 -- -- 68
2019-10-07 22:00:00 12.5 2 Este 6 Este 0 -- -- 66
2019-10-07 21:00:00 15.9 3 Nordeste 6 Sudeste 0 -- -- 56
2019-10-07 20:00:00 20 4 Sudeste 5 Sudeste 0 -- -- 49
2019-10-07 19:00:00 25 0 Calma 13 Oeste 0 -- -- 35
2019-10-07 18:00:00 25.4 4 Sudoeste 14 Sudoeste 0 -- -- 33
2019-10-07 17:00:00 24.6 7 Sudoeste 15 Oeste 0 -- -- 32
2019-10-07 16:00:00 23.9 6 Sudoeste 15 Oeste 0 -- -- 32
2019-10-07 15:00:00 22.5 8 Sudoeste 15 Sudoeste 0 -- -- 35
2019-10-07 14:00:00 20.4 5 Sudoeste 15 Sudoeste 0 -- -- 40
2019-10-07 13:00:00 17.7 5 Sudoeste 12 Sur 0 -- -- 59
2019-10-07 12:00:00 15 5 Oeste 13 Oeste 0 -- -- 65
2019-10-07 11:00:00 12.3 0 Calma 6 Nordeste 0 -- -- 80
2019-10-07 10:00:00 8 4 Nordeste 5 Nordeste 0 -- -- 86
2019-10-07 09:00:00 4.9 0 Calma 3 Este 0 -- -- 93
2019-10-07 08:00:00 5.2 2 Este 4 Nordeste 0 -- -- 91
2019-10-07 07:00:00 5.3 3 Este 4 Nordeste 0 -- -- 92
2019-10-07 06:00:00 5.4 4 Este 6 Nordeste 0 -- -- 92
2019-10-07 05:00:00 6.3 3 Nordeste 6 Este 0 -- -- 90
2019-10-07 04:00:00 6.8 4 Nordeste 6 Este 0 -- -- 91
2019-10-07 03:00:00 7.4 0 Calma 6 Este 0 -- -- 88
2019-10-07 02:00:00 8.6 0 Calma 5 Nordeste 0 -- -- 85
2019-10-07 01:00:00 9.1 3 Nordeste 8 Este 0 -- -- 86
2019-10-07 00:00:00 10.4 4 Nordeste 6 Nordeste 0 -- -- 78
2019-10-06 23:00:00 13.3 3 Nordeste 10 Este 0 -- -- 71
2019-10-06 22:00:00 14.5 9 Este 17 Este 0 -- -- 68
2019-10-06 21:00:00 15.9 4 Nordeste 9 Sur 0 -- -- 57
2019-10-06 20:00:00 18.9 3 Sur 6 Sur 0 -- -- 52
2019-10-06 19:00:00 22 6 Sudoeste 14 Sudoeste 0 -- -- 42
2019-10-06 18:00:00 22.2 8 Sudoeste 16 Sudoeste 0 -- -- 42
2019-10-06 17:00:00 22.1 7 Oeste 19 Sur 0 -- -- 43
2019-10-06 16:00:00 21.5 7 Sudoeste 22 Sudoeste 0 -- -- 46
2019-10-06 15:00:00 20.1 6 Sudoeste 16 Noroeste 0 -- -- 52
2019-10-06 14:00:00 18.5 6 Oeste 15 Sudoeste 0 -- -- 59
2019-10-06 13:00:00 17 7 Oeste 14 Sudoeste 0 -- -- 63
2019-10-06 12:00:00 14.8 5 Sudoeste 11 Sudoeste 0 -- -- 71
2019-10-06 11:00:00 11.7 3 Oeste 5 Noroeste 0 -- -- 82
2019-10-06 10:00:00 8.7 3 Sudeste 4 Sudeste 0 -- -- 94
2019-10-06 09:00:00 5.1 2 Nordeste 5 Noroeste 0 -- -- 93
2019-10-06 08:00:00 5 0 Calma 4 Este 0 -- -- 92
2019-10-06 07:00:00 5 0 Calma 4 Nordeste 0 -- -- 90
2019-10-06 06:00:00 5.2 0 Calma 6 Este 0 -- -- 92
2019-10-06 05:00:00 5.8 2 Este 6 Este 0 -- -- 90
2019-10-06 04:00:00 7 2 Norte 5 Nordeste 0 -- -- 88
2019-10-06 03:00:00 8.5 3 Nordeste 6 Nordeste 0 -- -- 90
2019-10-06 02:00:00 8.2 2 Nordeste 5 Nordeste 0 -- -- 86
2019-10-06 01:00:00 9.8 0 Calma 8 Este 0 -- -- 84
2019-10-06 00:00:00 9.8 3 Este 7 Nordeste 0 -- -- 82
2019-10-05 23:00:00 11.8 2 Nordeste 4 Nordeste 0 -- -- 76
2019-10-05 22:00:00 13.2 2 Nordeste 4 Nordeste 0 -- -- 74
2019-10-05 21:00:00 14.1 3 Sur 5 Sudoeste 0 -- -- 69
2019-10-05 20:00:00 18.3 4 Sudoeste 7 Sudoeste 0 -- -- 57
2019-10-05 19:00:00 22 4 Sudoeste 13 Sudoeste 0 -- -- 47
2019-10-05 18:00:00 22.5 6 Sudoeste 15 Sudoeste 0 -- -- 48
2019-10-05 17:00:00 22.3 8 Oeste 17 Sudoeste 0 -- -- 48
2019-10-05 16:00:00 21.5 8 Oeste 18 Oeste 0 -- -- 53
2019-10-05 15:00:00 20.6 9 Oeste 17 Sudoeste 0 -- -- 58
2019-10-05 14:00:00 19.6 7 Oeste 15 Oeste 0 -- -- 63
2019-10-05 13:00:00 18.1 5 Sudoeste 13 Oeste 0 -- -- 67
2019-10-05 12:00:00 16.4 4 Sudoeste 10 Sudoeste 0 -- -- 73
2019-10-05 11:00:00 14.4 0 Calma 3 Oeste 0 -- -- 80
2019-10-05 10:00:00 10.3 2 Nordeste 4 Nordeste 0 -- -- 97
2019-10-05 09:00:00 6.3 4 Este 4 Nordeste 0 -- -- 97
2019-10-05 08:00:00 5.2 2 Este 4 Nordeste 0 -- -- 94
2019-10-05 07:00:00 5.7 0 Calma 4 Nordeste 0 -- -- 94
2019-10-05 06:00:00 6.1 3 Este 4 Este 0 -- -- 93
2019-10-05 05:00:00 6.8 2 Nordeste 4 Nordeste 0 -- -- 92
2019-10-05 04:00:00 7.5 0 Calma 3 Este 0 -- -- 93
2019-10-05 03:00:00 8.3 0 Calma 4 Nordeste 0 -- -- 90
2019-10-05 02:00:00 9.2 3 Nordeste 4 Nordeste 0 -- -- 92
2019-10-05 01:00:00 9.8 3 Nordeste 5 Este 0 -- -- 87
2019-10-05 00:00:00 11.2 0 Calma 5 Este 0 -- -- 82
2019-10-04 23:00:00 11.7 6 Nordeste 9 Nordeste 0 -- -- 83
2019-10-04 22:00:00 13.3 2 Este 6 Sudeste 0 -- -- 75
2019-10-04 21:00:00 14.8 4 Sudeste 6 Sudeste 0 -- -- 70
2019-10-04 20:00:00 19.5 2 Sur 8 Sudoeste 0 -- -- 57
2019-10-04 19:00:00 22.1 5 Sudoeste 12 Oeste 0 -- -- 49
2019-10-04 18:00:00 22.3 6 Sudoeste 18 Sudoeste 0 -- -- 48
2019-10-04 17:00:00 22.3 7 Sudoeste 17 Oeste 0 -- -- 49
2019-10-04 16:00:00 21.9 9 Oeste 19 Oeste 0 -- -- 50
2019-10-04 15:00:00 21 10 Oeste 22 Sudoeste 0 -- -- 53
2019-10-04 14:00:00 20.2 13 Sudoeste 22 Oeste 0 -- -- 57
2019-10-04 13:00:00 18.9 4 Sudoeste 9 Sudoeste 0 -- -- 58
2019-10-04 12:00:00 17.4 0 Calma 6 Sudoeste 0 -- -- 62
2019-10-04 11:00:00 14.2 3 Norte 5 Norte 0 -- -- 76
2019-10-04 10:00:00 10.3 2 Nordeste 8 Nordeste 0 -- -- 88
2019-10-04 09:00:00 6 3 Este 5 Nordeste 0 -- -- 95
2019-10-04 08:00:00 5.2 3 Este 5 Este 0 -- -- 92
2019-10-04 07:00:00 5.9 2 Nordeste 6 Nordeste 0 -- -- 92
2019-10-04 06:00:00 6.2 3 Nordeste 4 Nordeste 0 -- -- 92
2019-10-04 05:00:00 7.1 0 Calma 8 Nordeste 0 -- -- 88
2019-10-04 04:00:00 7.8 4 Este 6 Nordeste 0 -- -- 90
2019-10-04 03:00:00 8.5 2 Nordeste 5 Este 0 -- -- 81
2019-10-04 02:00:00 10 4 Nordeste 8 Este 0 -- -- 81
2019-10-04 01:00:00 9.3 3 Este 6 Este 0 -- -- 82
2019-10-04 00:00:00 11.1 4 Este 9 Nordeste 0 -- -- 74
2019-10-03 23:00:00 10.1 4 Este 6 Nordeste 0 -- -- 73
2019-10-03 22:00:00 11.9 0 Calma 3 Sur 0 -- -- 66
2019-10-03 21:00:00 14.7 2 Sur 9 Sur 0 -- -- 56
2019-10-03 20:00:00 19.8 2 Sur 7 Sudoeste 0 -- -- 46
2019-10-03 19:00:00 23.1 4 Sudoeste 14 Sudoeste 0 -- -- 35
2019-10-03 18:00:00 23 10 Sudoeste 18 Sudoeste 0 -- -- 36
2019-10-03 17:00:00 22.6 8 Oeste 17 Oeste 0 -- -- 42
2019-10-03 16:00:00 21.3 6 Sudoeste 19 Sur 0 -- -- 44
2019-10-03 15:00:00 19.7 8 Sudoeste 17 Oeste 0 -- -- 50
2019-10-03 14:00:00 18 10 Oeste 19 Sudoeste 0 -- -- 56
2019-10-03 13:00:00 16.1 0 Calma 0 Calma 0 -- -- 65
2019-10-03 12:00:00 13.9 0 Calma 0 Calma 0 -- -- 72
2019-10-03 11:00:00 11.9 0 Calma -- -- 0 -- -- 81
2019-10-03 10:00:00 7.4 0 Calma 0 Calma 0 -- -- 95
2019-10-03 09:00:00 4 0 Calma -- -- 0 -- -- 95
2019-10-03 08:00:00 3.6 0 Calma -- -- 0 -- -- 93
2019-10-03 07:00:00 4.1 0 Calma -- -- 0 -- -- 93
2019-10-03 06:00:00 4.2 0 Calma -- -- 0 -- -- 92
2019-10-03 05:00:00 4.6 0 Calma -- -- 0 -- -- 92
2019-10-03 04:00:00 5.2 0 Calma -- -- 0 -- -- 92
2019-10-03 03:00:00 6.2 0 Calma -- -- 0 -- -- 90
2019-10-03 02:00:00 6.8 0 Calma 0 Calma 0 -- -- 91
2019-10-03 01:00:00 8 0 Calma -- -- 0 -- -- 84
2019-10-03 00:00:00 9.7 0 Calma 0 Calma 0 -- -- 81
2019-10-02 23:00:00 10.7 0 Calma 0 Calma 0 -- -- 79
2019-10-02 22:00:00 9.8 0 Calma 0 Calma 0 -- -- 75
2019-10-02 21:00:00 11.7 0 Calma 0 Calma 0 -- -- 68
2019-10-02 20:00:00 16.7 0 Calma 0 Calma 0 -- -- 54
2019-10-02 19:00:00 19.6 0 Calma 7 Noroeste 0 -- -- 45
2019-10-02 18:00:00 19.4 2 Noroeste 11 Norte 0 -- -- 44
2019-10-02 17:00:00 19.2 5 Norte 15 Nordeste 0 -- -- 45
2019-10-02 16:00:00 18.5 6 Norte 19 Norte 0 -- -- 46
2019-10-02 15:00:00 17.6 8 Nordeste 24 Nordeste 0 -- -- 49
2019-10-02 14:00:00 17.1 13 Norte 30 Norte 0 -- -- 49
2019-10-02 13:00:00 15.7 11 Nordeste 25 Nordeste 0 -- -- 54
2019-10-02 12:00:00 14.4 7 Noroeste 12 Noroeste 0 -- -- 60
2019-10-02 11:00:00 10.3 0 Calma 7 Norte 0 -- -- 76
2019-10-02 10:00:00 8.2 4 Sudoeste 8 Sudoeste 0 -- -- 87
2019-10-02 09:00:00 5.4 0 Calma 4 Este 0 -- -- 94
2019-10-02 08:00:00 4.5 0 Calma 4 Nordeste 0 -- -- 93
2019-10-02 07:00:00 4.1 3 Sur 4 Sudeste 0 -- -- 94
2019-10-02 06:00:00 3.2 0 Calma 3 Este 0 -- -- 92
2019-10-02 05:00:00 3.7 0 Calma 2 Este 0 -- -- 91
2019-10-02 04:00:00 4.6 0 Calma 4 Sudoeste 0 -- -- 87
2019-10-02 03:00:00 6.5 2 Sudoeste 8 Sudoeste 0 -- -- 85
2019-10-02 02:00:00 8.1 0 Calma 12 Sudoeste 0 -- -- 84
2019-10-02 01:00:00 10 4 Sudoeste 10 Oeste 0 -- -- 78
2019-10-02 00:00:00 11.6 4 Oeste 17 Oeste 0 -- -- 69
2019-10-01 23:00:00 12.9 6 Oeste 18 Oeste 0 -- -- 66
2019-10-01 22:00:00 14.4 12 Oeste 34 Oeste 0 -- -- 62
2019-10-01 21:00:00 15.9 16 Oeste 32 Oeste 0 -- -- 56
2019-10-01 20:00:00 17.4 14 Oeste 28 Oeste 0 -- -- 53
2019-10-01 19:00:00 19.7 13 Oeste 32 Oeste 0 -- -- 49
2019-10-01 18:00:00 20.9 19 Oeste 34 Sudoeste 0 -- -- 44
2019-10-01 17:00:00 21.4 18 Oeste 38 Sudoeste 0 -- -- 43
2019-10-01 16:00:00 20.6 21 Oeste 37 Oeste 0 -- -- 45
2019-10-01 15:00:00 19.8 21 Oeste 36 Oeste 0 -- -- 51
2019-10-01 14:00:00 19.4 18 Oeste 42 Oeste 0 -- -- 53
2019-10-01 13:00:00 18.8 21 Oeste 34 Oeste 0 -- -- 56
2019-10-01 12:00:00 17.1 15 Oeste 25 Oeste 0 -- -- 69
2019-10-01 11:00:00 14.5 9 Sudoeste 16 Sudoeste 0 -- -- 84
2019-10-01 10:00:00 11.7 3 Sudoeste 8 Sur 0 -- -- 97
2019-10-01 09:00:00 7.9 3 Sur 4 Sur 0 -- -- 96
2019-10-01 08:00:00 7.4 0 Calma 3 Norte 0 -- -- 92
2019-10-01 07:00:00 8.4 2 Sudoeste 4 Sur 0 -- -- 93
2019-10-01 06:00:00 9.6 2 Oeste 4 Sur 0 -- -- 92
2019-10-01 05:00:00 9.8 0 Calma 5 Este 0 -- -- 92
2019-10-01 04:00:00 10.3 3 Este 9 Nordeste 0 -- -- 92
2019-10-01 03:00:00 10.4 3 Nordeste 5 Nordeste 0 -- -- 91
2019-10-01 02:00:00 10.8 3 Este 7 Este 0 -- -- 89
2019-10-01 01:00:00 10.7 3 Este 5 Este 0 -- -- 89
2019-10-01 00:00:00 12.8 0 Calma 5 Sur 0 -- -- 83
2019-09-30 23:00:00 15.2 3 Oeste 7 Sudoeste 0 -- -- 79
2019-09-30 22:00:00 17.3 0 Calma 8 Sur 0 -- -- 70
2019-09-30 21:00:00 18.3 5 Sur 12 Sudeste 0 -- -- 69
2019-09-30 20:00:00 20.8 4 Este 6 Este 0 -- -- 64
2019-09-30 19:00:00 23.2 3 Sudoeste 14 Noroeste 0 -- -- 55
2019-09-30 18:00:00 24 9 Oeste 17 Oeste 0 -- -- 51
2019-09-30 17:00:00 23.8 8 Sudoeste 17 Sudoeste 0 -- -- 52
2019-09-30 16:00:00 23 7 Sudoeste 19 Sudoeste 0 -- -- 55
2019-09-30 15:00:00 21.7 9 Sudoeste 20 Sudoeste 0 -- -- 59
2019-09-30 14:00:00 20.4 8 Sudoeste 21 Oeste 0 -- -- 64
2019-09-30 13:00:00 18.6 10 Sudoeste 19 Sudoeste 0 -- -- 71
2019-09-30 12:00:00 17 2 Sudoeste 8 Sur 0 -- -- 74
2019-09-30 11:00:00 14.2 3 Sur 8 Sur 0 -- -- 85
2019-09-30 10:00:00 10.5 0 Calma 3 Oeste 0 -- -- 97
2019-09-30 09:00:00 6.9 0 Calma 6 Nordeste 0 -- -- 96
2019-09-30 08:00:00 6 5 Este 8 Nordeste 0 -- -- 95
2019-09-30 07:00:00 7.3 3 Norte 8 Este 0 -- -- 97
2019-09-30 06:00:00 7 4 Nordeste 8 Nordeste 0 -- -- 97
2019-09-30 05:00:00 7.5 3 Nordeste 8 Nordeste 0 -- -- 92
2019-09-30 04:00:00 8.2 3 Nordeste 5 Nordeste 0 -- -- 92
2019-09-30 03:00:00 9.6 0 Calma 8 Sudoeste 0 -- -- 91
2019-09-30 02:00:00 11.7 6 Sudoeste 9 Sudoeste 0 -- -- 92
2019-09-30 01:00:00 13.6 4 Oeste 11 Oeste 0 -- -- 85
2019-09-30 00:00:00 15.2 8 Sudoeste 12 Sudoeste 0 -- -- 80
2019-09-29 23:00:00 16.1 3 Sudoeste 15 Oeste 0 -- -- 77
2019-09-29 22:00:00 17.8 8 Oeste 14 Oeste 0 -- -- 75
2019-09-29 21:00:00 19.7 8 Oeste 20 Noroeste 0 -- -- 65
2019-09-29 20:00:00 21.8 8 Oeste 21 Oeste 0 -- -- 56
2019-09-29 19:00:00 23.9 12 Oeste 26 Oeste 0 -- -- 50
2019-09-29 18:00:00 24.8 7 Sudoeste 22 Sur 0 -- -- 39
2019-09-29 17:00:00 24.2 14 Sudoeste 26 Oeste 0 -- -- 38
2019-09-29 16:00:00 23.8 14 Sudoeste 29 Sudoeste 0 -- -- 39
2019-09-29 15:00:00 23 13 Sudoeste 27 Sudoeste 0 -- -- 40
2019-09-29 14:00:00 21.6 15 Oeste 24 Sur 0 -- -- 42
2019-09-29 13:00:00 19.8 9 Oeste 18 Sudoeste 0 -- -- 44
2019-09-29 12:00:00 17.6 6 Oeste 12 Sudoeste 0 -- -- 47
2019-09-29 11:00:00 14.7 3 Sur 8 Sur 0 -- -- 61
2019-09-29 10:00:00 9 3 Norte 5 Norte 0 -- -- 83
2019-09-29 09:00:00 4.2 2 Nordeste 6 Este 0 -- -- 94
2019-09-29 08:00:00 3.8 0 Calma 7 Nordeste 0 -- -- 92
2019-09-29 07:00:00 4.1 4 Este 8 Nordeste 0 -- -- 90
2019-09-29 06:00:00 4.6 4 Nordeste 7 Este 0 -- -- 93
2019-09-29 05:00:00 4.6 2 Este 6 Nordeste 0 -- -- 91
2019-09-29 04:00:00 5.5 6 Nordeste 9 Nordeste 0 -- -- 89
2019-09-29 03:00:00 5.5 5 Nordeste 8 Este 0 -- -- 89
2019-09-29 02:00:00 6.4 2 Nordeste 7 Nordeste 0 -- -- 86
2019-09-29 01:00:00 7.3 4 Nordeste 9 Nordeste 0 -- -- 84
2019-09-29 00:00:00 8.1 3 Nordeste 7 Este 0 -- -- 83
2019-09-28 23:00:00 9.4 7 Nordeste 10 Nordeste 0 -- -- 77
2019-09-28 22:00:00 11 0 Calma 8 Nordeste 0 -- -- 75
2019-09-28 21:00:00 13.1 4 Sudeste 9 Sudoeste 0 -- -- 66
2019-09-28 20:00:00 19 8 Sudoeste 12 Sudoeste 0 -- -- 48
2019-09-28 19:00:00 21.2 8 Sudoeste 15 Sudoeste 0 -- -- 39
2019-09-28 18:00:00 21.7 8 Sudoeste 17 Oeste 0 -- -- 39
2019-09-28 17:00:00 21.6 8 Oeste 16 Oeste 0 -- -- 43
2019-09-28 16:00:00 20.7 8 Oeste 17 Sudoeste 0 -- -- 40
2019-09-28 15:00:00 19.4 5 Sudoeste 23 Sudoeste 0 -- -- 47
2019-09-28 14:00:00 18 6 Oeste 16 Sudoeste 0 -- -- 58
2019-09-28 13:00:00 15.9 6 Noroeste 13 Oeste 0 -- -- 70
2019-09-28 12:00:00 14.1 3 Oeste 8 Oeste 0 -- -- 78
2019-09-28 11:00:00 12.9 5 Norte 7 Norte 0 -- -- 84
2019-09-28 10:00:00 11.9 5 Norte 8 Nordeste 0 -- -- 89
2019-09-28 09:00:00 10.8 3 Nordeste 6 Norte 0 -- -- 95
2019-09-28 08:00:00 10 3 Nordeste 8 Norte 0 -- -- 96
2019-09-28 07:00:00 10.1 4 Norte 8 Nordeste 0 -- -- 96
2019-09-28 06:00:00 9.7 6 Nordeste 8 Norte 0 -- -- 97
2019-09-28 05:00:00 9.4 4 Nordeste 7 Norte 0 -- -- 96
2019-09-28 04:00:00 8.8 4 Nordeste 10 Nordeste 0 -- -- 96
2019-09-28 03:00:00 8.3 7 Nordeste 10 Nordeste 0 -- -- 94
2019-09-28 02:00:00 6.7 3 Nordeste 11 Este 0 -- -- 91
2019-09-28 01:00:00 7.8 3 Este 6 Sudeste 0 -- -- 88
2019-09-28 00:00:00 10.4 5 Noroeste 9 Sudoeste 0 -- -- 81
2019-09-27 23:00:00 13.3 5 Sudoeste 12 Sudoeste 0 -- -- 74
2019-09-27 22:00:00 14.5 7 Sudoeste 12 Oeste 0 -- -- 69
2019-09-27 21:00:00 16.1 4 Este 13 Oeste 0 -- -- 66
2019-09-27 20:00:00 19 4 Oeste 19 Oeste 0 -- -- 56
2019-09-27 19:00:00 20.5 12 Oeste 25 Oeste 0 -- -- 49
2019-09-27 18:00:00 20.4 15 Oeste 33 Oeste 0 -- -- 53
2019-09-27 17:00:00 21 23 Oeste 35 Oeste 0 -- -- 52
2019-09-27 16:00:00 20 21 Oeste 37 Oeste 0 -- -- 56
2019-09-27 15:00:00 21.4 19 Oeste 36 Oeste 0 -- -- 53
2019-09-27 14:00:00 20.4 14 Oeste 27 Oeste 0 -- -- 55
2019-09-27 13:00:00 17.7 9 Sudoeste 17 Sudoeste 0 -- -- 63
2019-09-27 12:00:00 15.8 5 Sudoeste 12 Oeste 0 -- -- 66
2019-09-27 11:00:00 13 3 Sur 6 Sudoeste 0 -- -- 68
2019-09-27 10:00:00 8.5 0 Calma 5 Nordeste 0 -- -- 92
2019-09-27 09:00:00 4.8 2 Nordeste 10 Nordeste 0 -- -- 95
2019-09-27 08:00:00 3.7 3 Norte 7 Nordeste 0 -- -- 95
2019-09-27 07:00:00 3.4 2 Norte 5 Sudeste 0 -- -- 92
2019-09-27 06:00:00 4.4 0 Calma 6 Este 0 -- -- 92
2019-09-27 05:00:00 4.5 3 Nordeste 7 Este 0 -- -- 92
2019-09-27 04:00:00 4.3 5 Nordeste 8 Nordeste 0 -- -- 92
2019-09-27 03:00:00 5 5 Este 8 Este 0 -- -- 90
2019-09-27 02:00:00 6.4 0 Calma 5 Sudeste 0 -- -- 88
2019-09-27 01:00:00 7.2 4 Este 5 Este 0 -- -- 83
2019-09-27 00:00:00 9.7 3 Norte 6 Sudoeste 0 -- -- 78
2019-09-26 23:00:00 10.6 3 Sudoeste 5 Sur 0 -- -- 74
2019-09-26 22:00:00 12.5 3 Sur 8 Sur 0 -- -- 65
2019-09-26 21:00:00 15.5 4 Sudoeste 9 Sudoeste 0 -- -- 55
2019-09-26 20:00:00 21.2 2 Noroeste 11 Sudoeste 0 -- -- 41
2019-09-26 19:00:00 22.9 5 Sudoeste 14 Sudoeste 0 -- -- 38
2019-09-26 18:00:00 23 7 Oeste 18 Oeste 0 -- -- 36
2019-09-26 17:00:00 22.7 8 Sudoeste 19 Oeste 0 -- -- 37
2019-09-26 16:00:00 21.5 11 Sudoeste 21 Oeste 0 -- -- 37
2019-09-26 15:00:00 20.5 10 Sudoeste 19 Sudoeste 0 -- -- 43
2019-09-26 14:00:00 18.6 11 Sudoeste 21 Oeste 0 -- -- 53
2019-09-26 13:00:00 17.3 10 Sudoeste 18 Sudoeste 0 -- -- 59
2019-09-26 12:00:00 15.6 9 Sudoeste 14 Oeste 0 -- -- 67
2019-09-26 11:00:00 13.1 5 Oeste 7 Sudoeste 0 -- -- 76
2019-09-26 10:00:00 9.8 2 Norte 4 Norte 0 -- -- 96
2019-09-26 09:00:00 6.7 2 Este 4 Nordeste 0 -- -- 96
2019-09-26 08:00:00 6.4 0 Calma 2 Nordeste 0 -- -- 96
2019-09-26 07:00:00 5.9 2 Este 6 Sudoeste 0 -- -- 94
2019-09-26 06:00:00 6.2 4 Este 5 Este 0 -- -- 94
2019-09-26 05:00:00 6.8 2 Este 5 Nordeste 0 -- -- 93
2019-09-26 04:00:00 7.1 2 Este 6 Este 0 -- -- 93
2019-09-26 03:00:00 7.9 2 Sudeste 4 Sudeste 0 -- -- 92
2019-09-26 02:00:00 8.5 0 Calma 7 Este 0 -- -- 93
2019-09-26 01:00:00 8.9 2 Sudeste 5 Este 0 -- -- 90
2019-09-26 00:00:00 10.2 0 Calma 4 Oeste 0 -- -- 87
2019-09-25 23:00:00 11.1 0 Calma 6 Sudoeste 0 -- -- 84
2019-09-25 22:00:00 13.6 3 Sudoeste 8 Sur 0 -- -- 74
2019-09-25 21:00:00 15.4 4 Sudoeste 10 Sudoeste 0 -- -- 69
2019-09-25 20:00:00 18.1 6 Sudoeste 16 Sudoeste 0 -- -- 59
2019-09-25 19:00:00 19.5 11 Sudoeste 18 Oeste 0 -- -- 54
2019-09-25 18:00:00 19.4 9 Oeste 18 Sudoeste 0 -- -- 51
2019-09-25 17:00:00 19.1 10 Oeste 19 Sudoeste 0 -- -- 53
2019-09-25 16:00:00 18.4 9 Oeste 21 Sudoeste 0 -- -- 54
2019-09-25 15:00:00 17.5 9 Sudoeste 17 Sudoeste 0 -- -- 58
2019-09-25 14:00:00 16.9 7 Sudoeste 17 Oeste 0 -- -- 55
2019-09-25 13:00:00 15.4 9 Sudoeste 14 Sudoeste 0 -- -- 58
2019-09-25 12:00:00 14 4 Sudoeste 10 Noroeste 0 -- -- 66
2019-09-25 11:00:00 11.7 3 Sur 8 Sur 0 -- -- 74
2019-09-25 10:00:00 8.2 2 Este 5 Norte 0 -- -- 88
2019-09-25 09:00:00 4.9 0 Calma 6 Nordeste 0 -- -- 95
2019-09-25 08:00:00 3.9 2 Este 4 Nordeste 0 -- -- 93
2019-09-25 07:00:00 4.5 0 Calma 7 Este 0 -- -- 92
2019-09-25 06:00:00 5.2 2 Sudoeste 8 Este 0 -- -- 90
2019-09-25 05:00:00 6.2 0 Calma 4 Oeste 0 -- -- 87
2019-09-25 04:00:00 7.5 2 Nordeste 11 Oeste 0 -- -- 85
2019-09-25 03:00:00 9.3 5 Oeste 13 Oeste 0 -- -- 80
2019-09-25 02:00:00 9.9 8 Sudoeste 13 Sudoeste 0 -- -- 77
2019-09-25 01:00:00 11.4 3 Sudoeste 27 Oeste 0 -- -- 70
2019-09-25 00:00:00 12.4 13 Oeste 32 Noroeste 0 -- -- 64
2019-09-24 23:00:00 13.6 15 Oeste 31 Oeste 0 -- -- 59
2019-09-24 22:00:00 14.6 15 Noroeste 33 Noroeste 0 -- -- 65
2019-09-24 21:00:00 15.8 8 Oeste 33 Oeste 0 -- -- 60
2019-09-24 20:00:00 17.4 18 Oeste 32 Oeste 0 -- -- 53
2019-09-24 19:00:00 19 13 Noroeste 36 Oeste 0 -- -- 52
2019-09-24 18:00:00 20.2 19 Noroeste 34 Noroeste 0 -- -- 51
2019-09-24 17:00:00 20.5 16 Oeste 27 Oeste 0 -- -- 56
2019-09-24 16:00:00 19.4 13 Oeste 28 Oeste 0 -- -- 64
2019-09-24 15:00:00 19.1 9 Sudoeste 20 Sudoeste 0 -- -- 69
2019-09-24 14:00:00 18.9 10 Sudoeste 21 Oeste 0 -- -- 72
2019-09-24 13:00:00 15.8 4 Noroeste 16 Sudoeste 0 -- -- 87
2019-09-24 12:00:00 15.4 10 Sudoeste 18 Sudoeste 0 -- -- 80
2019-09-24 11:00:00 14.2 8 Oeste 15 Sudoeste 0 -- -- 86
2019-09-24 10:00:00 13.1 7 Sudoeste 12 Sudoeste 0 -- -- 88
2019-09-24 09:00:00 11.6 3 Sudeste 7 Sudeste 0 -- -- 91
2019-09-24 08:00:00 11.2 0 Calma 4 Nordeste 0 -- -- 93
2019-09-24 07:00:00 11 0 Calma 4 Norte 0 -- -- 92
2019-09-24 06:00:00 10.6 3 Sur 9 Oeste 0 -- -- 91
2019-09-24 05:00:00 11.6 6 Oeste 15 Sudoeste 0 -- -- 87
2019-09-24 04:00:00 10.3 6 Sur 12 Sudoeste 0 -- -- 92
2019-09-24 03:00:00 11 4 Sudoeste 9 Oeste 0 -- -- 87
2019-09-24 02:00:00 11.2 4 Sur 9 Sur 0 -- -- 88
2019-09-24 01:00:00 11.9 4 Sur 9 Sur 0 -- -- 85
2019-09-24 00:00:00 13.4 5 Sur 12 Sur 0 -- -- 79
2019-09-23 23:00:00 12.4 5 Sur 8 Sur 0 -- -- 84
2019-09-23 22:00:00 13 2 Norte 8 Este 0 -- -- 83
2019-09-23 21:00:00 15.5 4 Este 4 Este 0 -- -- 74
2019-09-23 20:00:00 16.9 0 Calma 4 Oeste 0 -- -- 70
2019-09-23 19:00:00 17.3 2 Oeste 10 Sudoeste 0 -- -- 62
2019-09-23 18:00:00 17.4 3 Sudoeste 14 Sudoeste 0 -- -- 61
2019-09-23 17:00:00 16.8 7 Oeste 17 Sudoeste 0 -- -- 60
2019-09-23 16:00:00 16.8 9 Sudoeste 18 Oeste 0 -- -- 57
2019-09-23 15:00:00 17.1 9 Sudoeste 17 Sur 0 -- -- 59
2019-09-23 14:00:00 15 8 Sudoeste 16 Oeste 0 -- -- 66
2019-09-23 13:00:00 14.3 8 Sur 14 Sudeste 0 -- -- 72
2019-09-23 12:00:00 12.9 4 Sur 10 Sudoeste 0 -- -- 81
2019-09-23 11:00:00 10.7 3 Oeste 6 Oeste 0 -- -- 90
2019-09-23 10:00:00 9.1 2 Noroeste 4 Norte 0 -- -- 94
2019-09-23 09:00:00 7.4 3 Nordeste 6 Norte 0 -- -- 95
2019-09-23 08:00:00 6.4 0 Calma 4 Este 0 -- -- 95
2019-09-23 07:00:00 5.6 0 Calma 4 Este 0 -- -- 94
2019-09-23 06:00:00 5.7 3 Nordeste 5 Norte 0 -- -- 93
2019-09-23 05:00:00 5.8 3 Este 7 Nordeste 0 -- -- 95
2019-09-23 04:00:00 5.8 0 Calma 5 Nordeste 0 -- -- 93
2019-09-23 03:00:00 5.8 0 Calma 3 Este 0 -- -- 93
2019-09-23 02:00:00 5.9 3 Este 4 Este 0 -- -- 91
2019-09-23 01:00:00 6.9 2 Este 4 Este 0 -- -- 91
2019-09-23 00:00:00 7.8 3 Este 5 Este 0 -- -- 88
2019-09-22 23:00:00 9.9 0 Calma 5 Sudoeste 0 -- -- 83
2019-09-22 22:00:00 11.4 5 Sudoeste 8 Sudoeste 0 -- -- 79
2019-09-22 21:00:00 13.1 0 Calma 10 Sudoeste 0 -- -- 70
2019-09-22 20:00:00 16 6 Sur 14 Sudoeste 0 -- -- 58
2019-09-22 19:00:00 17 11 Sudoeste 22 Sudoeste 0 -- -- 50
2019-09-22 18:00:00 16.2 8 Sudoeste 28 Sudoeste 0 -- -- 55
2019-09-22 17:00:00 17.6 16 Sudoeste 27 Oeste 0 -- -- 49
2019-09-22 16:00:00 17.6 15 Oeste 32 Sudoeste 0 -- -- 49
2019-09-22 15:00:00 16.9 16 Oeste 28 Oeste 0 -- -- 52
2019-09-22 14:00:00 15.2 12 Oeste 21 Oeste 0 -- -- 62
2019-09-22 13:00:00 13.8 11 Oeste 22 Oeste 0 -- -- 72
2019-09-22 12:00:00 12.5 8 Oeste 17 Oeste 0 -- -- 84
2019-09-22 11:00:00 11.4 8 Oeste 15 Sudoeste 0 -- -- 91
2019-09-22 10:00:00 10.3 6 Sudoeste 12 Sudoeste 0 -- -- 96
2019-09-22 09:00:00 9.7 6 Sudoeste 12 Sur 0 -- -- 97
2019-09-22 08:00:00 9.7 5 Oeste 9 Oeste 0 -- -- 96
2019-09-22 07:00:00 9.6 2 Oeste 8 Sudoeste 0 -- -- 96
2019-09-22 06:00:00 8.5 2 Sudoeste 13 Sudoeste 0 -- -- 92
2019-09-22 05:00:00 9.6 6 Sudoeste 15 Sudoeste 0 -- -- 90
2019-09-22 04:00:00 10.5 6 Oeste 15 Noroeste 0 -- -- 87
2019-09-22 03:00:00 11.3 4 Noroeste 12 Noroeste 0 -- -- 88
2019-09-22 02:00:00 11.6 5 Noroeste 36 Sudoeste 0 -- -- 93
2019-09-22 01:00:00 14.5 21 Sudoeste 40 Sur 0 -- -- 94
2019-09-22 00:00:00 14.8 22 Sudoeste 37 Sur 0.2 -- -- 95
2019-09-21 23:00:00 14.6 20 Sudoeste 37 Sur 2.6 -- -- 96
2019-09-21 22:00:00 14.8 14 Sur 33 Sur 0.6 -- -- 95
2019-09-21 21:00:00 15 9 Sur 25 Sur 0 -- -- 94
2019-09-21 20:00:00 15.2 15 Sur 26 Sur 0.6 -- -- 94
2019-09-21 19:00:00 15.4 14 Sur 30 Sur 0.6 -- -- 94
2019-09-21 18:00:00 15.3 11 Sur 27 Sur 0 -- -- 93
2019-09-21 17:00:00 14.9 15 Sur 31 Sur 0 -- -- 94
2019-09-21 16:00:00 15 14 Sur 31 Sur 0.2 -- -- 94
2019-09-21 15:00:00 14.8 13 Sur 28 Sur 0.4 -- -- 93
2019-09-21 14:00:00 14.8 16 Sudoeste 30 Sudoeste 0.4 -- -- 91
2019-09-21 13:00:00 15.6 14 Sudoeste 25 Sur 0 -- -- 86
2019-09-21 12:00:00 15.3 13 Sudoeste 26 Sur 0 -- -- 86
2019-09-21 11:00:00 15.5 13 Sur 23 Sudoeste 0 -- -- 82
2019-09-21 10:00:00 14.5 9 Sur 18 Sudoeste 0 -- -- 88
2019-09-21 09:00:00 14.1 6 Sur 13 Sudoeste 0 -- -- 89
2019-09-21 08:00:00 13.8 5 Sur 15 Sudoeste 0 -- -- 88
2019-09-21 07:00:00 14.2 8 Sudoeste 23 Sur 0.2 -- -- 88
2019-09-21 06:00:00 14.4 8 Sur 14 Sur 0 -- -- 92
2019-09-21 05:00:00 14.4 6 Sur 23 Sudeste 0.4 -- -- 92
2019-09-21 04:00:00 14.4 9 Sudeste 21 Sudeste 0 -- -- 92
2019-09-21 03:00:00 14.5 10 Sudeste 17 Sudeste 0 -- -- 91
2019-09-21 02:00:00 14.7 8 Este 27 Sudeste 0 -- -- 91
2019-09-21 01:00:00 14.9 20 Sudeste 37 Sudeste 0 -- -- 91
2019-09-21 00:00:00 14.8 9 Este 17 Este 0.2 -- -- 89
2019-09-20 23:00:00 15.7 3 Este 28 Sudeste 0.6 -- -- 88
2019-09-20 22:00:00 15.8 19 Sudeste 31 Sudeste 1.4 -- -- 88
2019-09-20 21:00:00 17.3 15 Sudeste 39 Este 0 -- -- 75
2019-09-20 20:00:00 21 19 Sudeste 40 Sudeste 0 -- -- 50
2019-09-20 19:00:00 24.2 14 Sudoeste 26 Sudoeste 0 -- -- 39
2019-09-20 18:00:00 24.6 11 Sudoeste 25 Sudoeste 0 -- -- 42
2019-09-20 17:00:00 24.8 13 Sudoeste 30 Oeste 0 -- -- 45
2019-09-20 16:00:00 24.4 10 Sur 25 Sur 0 -- -- 50
2019-09-20 15:00:00 23.5 11 Sudeste 24 Sur 0 -- -- 56
2019-09-20 14:00:00 22.5 11 Sur 23 Sur 0 -- -- 58
2019-09-20 13:00:00 20.8 9 Sudeste 23 Sudeste 0 -- -- 68
2019-09-20 12:00:00 18.1 6 Este 15 Este 0 -- -- 73
2019-09-20 11:00:00 17.1 9 Este 20 Este 0 -- -- 79
2019-09-20 10:00:00 16.7 9 Este 18 Este 0 -- -- 80
2019-09-20 09:00:00 12.5 5 Nordeste 8 Nordeste 0 -- -- 91
2019-09-20 08:00:00 11.7 6 Nordeste 13 Nordeste 0 -- -- 92
2019-09-20 07:00:00 12.3 8 Nordeste 14 Nordeste 0 -- -- 89
2019-09-20 06:00:00 12.2 5 Nordeste 11 Nordeste 0 -- -- 91
2019-09-20 05:00:00 12.6 6 Nordeste 10 Nordeste 0 -- -- 89
2019-09-20 04:00:00 13.6 4 Nordeste 12 Nordeste 0 -- -- 85
2019-09-20 03:00:00 14.5 8 Nordeste 12 Nordeste 0 -- -- 83
2019-09-20 02:00:00 14.6 7 Nordeste 14 Este 0 -- -- 84
2019-09-20 01:00:00 14 9 Nordeste 12 Nordeste 0 -- -- 86
2019-09-20 00:00:00 13.5 4 Nordeste 7 Norte 0 -- -- 83